sensor_id;sensor_type;location;lat;lon;timestamp;pressure;altitude;pressure_sealevel;temperature;humidity
50702;BME280;36670;50.094;8.496;2023-02-22T00:00:16;100327.38;;;7.53;71.73
50702;BME280;36670;50.094;8.496;2023-02-22T00:03:05;100323.97;;;7.39;71.97
50702;BME280;36670;50.094;8.496;2023-02-22T00:05:31;100326.84;;;7.44;71.47
50702;BME280;36670;50.094;8.496;2023-02-22T00:07:57;100326.47;;;7.41;72.08
50702;BME280;36670;50.094;8.496;2023-02-22T00:10:23;100323.31;;;7.56;71.50
50702;BME280;36670;50.094;8.496;2023-02-22T00:12:54;100329.22;;;7.41;71.58
50702;BME280;36670;50.094;8.496;2023-02-22T00:15:22;100327.53;;;7.40;72.13
50702;BME280;36670;50.094;8.496;2023-02-22T00:17:47;100323.97;;;7.21;72.39
50702;BME280;36670;50.094;8.496;2023-02-22T00:20:14;100321.53;;;7.12;72.78
50702;BME280;36670;50.094;8.496;2023-02-22T00:22:45;100322.44;;;7.25;72.41
50702;BME280;36670;50.094;8.496;2023-02-22T00:25:13;100314.00;;;6.89;72.92
50702;BME280;36670;50.094;8.496;2023-02-22T00:27:38;100319.09;;;6.86;73.45
50702;BME280;36670;50.094;8.496;2023-02-22T00:30:04;100318.97;;;6.99;72.65
50702;BME280;36670;50.094;8.496;2023-02-22T00:32:30;100313.06;;;6.95;72.84
50702;BME280;36670;50.094;8.496;2023-02-22T00:34:56;100313.69;;;6.97;72.88
50702;BME280;36670;50.094;8.496;2023-02-22T00:37:21;100310.72;;;6.99;72.56
50702;BME280;36670;50.094;8.496;2023-02-22T00:39:47;100311.38;;;6.94;72.81
50702;BME280;36670;50.094;8.496;2023-02-22T00:42:14;100310.50;;;7.00;73.85
50702;BME280;36670;50.094;8.496;2023-02-22T00:44:39;100312.19;;;7.02;73.43
50702;BME280;36670;50.094;8.496;2023-02-22T00:47:04;100306.59;;;7.08;73.52
50702;BME280;36670;50.094;8.496;2023-02-22T00:49:30;100295.53;;;6.96;74.12
50702;BME280;36670;50.094;8.496;2023-02-22T00:51:55;100302.78;;;7.09;73.80
50702;BME280;36670;50.094;8.496;2023-02-22T00:54:20;100296.75;;;7.19;73.72
50702;BME280;36670;50.094;8.496;2023-02-22T00:56:46;100295.25;;;7.05;74.44
50702;BME280;36670;50.094;8.496;2023-02-22T00:59:11;100293.84;;;7.14;73.91
50702;BME280;36670;50.094;8.496;2023-02-22T01:01:36;100293.41;;;7.17;74.01
50702;BME280;36670;50.094;8.496;2023-02-22T01:04:02;100281.69;;;7.10;74.20
50702;BME280;36670;50.094;8.496;2023-02-22T01:06:27;100287.53;;;7.13;74.46
50702;BME280;36670;50.094;8.496;2023-02-22T01:08:53;100281.88;;;7.08;74.41
50702;BME280;36670;50.094;8.496;2023-02-22T01:11:18;100279.13;;;7.08;73.98
50702;BME280;36670;50.094;8.496;2023-02-22T01:13:44;100282.41;;;6.98;74.51
50702;BME280;36670;50.094;8.496;2023-02-22T01:16:10;100273.50;;;7.03;74.45
50702;BME280;36670;50.094;8.496;2023-02-22T01:18:35;100281.13;;;7.01;74.35
50702;BME280;36670;50.094;8.496;2023-02-22T01:21:04;100281.16;;;7.31;73.20
50702;BME280;36670;50.094;8.496;2023-02-22T01:23:30;100274.69;;;7.26;73.39
50702;BME280;36670;50.094;8.496;2023-02-22T01:25:55;100273.31;;;7.35;72.57
50702;BME280;36670;50.094;8.496;2023-02-22T01:28:21;100274.41;;;7.46;72.22
50702;BME280;36670;50.094;8.496;2023-02-22T01:30:47;100272.47;;;7.65;71.73
50702;BME280;36670;50.094;8.496;2023-02-22T01:33:13;100269.53;;;7.48;71.54
50702;BME280;36670;50.094;8.496;2023-02-22T01:35:41;100271.47;;;7.29;72.12
50702;BME280;36670;50.094;8.496;2023-02-22T01:38:09;100272.69;;;7.33;72.03
50702;BME280;36670;50.094;8.496;2023-02-22T01:40:40;100270.81;;;7.33;70.85
50702;BME280;36670;50.094;8.496;2023-02-22T01:43:19;100260.84;;;7.02;72.64
50702;BME280;36670;50.094;8.496;2023-02-22T01:46:05;100267.56;;;6.88;72.84
50702;BME280;36670;50.094;8.496;2023-02-22T01:48:41;100263.44;;;6.78;73.27
50702;BME280;36670;50.094;8.496;2023-02-22T01:51:13;100265.72;;;6.81;73.36
50702;BME280;36670;50.094;8.496;2023-02-22T01:56:11;100250.03;;;6.89;73.05
50702;BME280;36670;50.094;8.496;2023-02-22T01:58:40;100241.88;;;7.00;72.37
50702;BME280;36670;50.094;8.496;2023-02-22T02:01:08;100243.09;;;6.86;72.34
50702;BME280;36670;50.094;8.496;2023-02-22T02:03:35;100246.66;;;7.05;71.96
50702;BME280;36670;50.094;8.496;2023-02-22T02:06:03;100239.81;;;6.59;73.16
50702;BME280;36670;50.094;8.496;2023-02-22T02:08:37;100239.34;;;6.43;73.57
50702;BME280;36670;50.094;8.496;2023-02-22T02:11:08;100240.19;;;6.44;73.36
50702;BME280;36670;50.094;8.496;2023-02-22T02:13:33;100238.34;;;6.38;73.54
50702;BME280;36670;50.094;8.496;2023-02-22T02:15:59;100238.53;;;6.18;74.06
50702;BME280;36670;50.094;8.496;2023-02-22T02:18:26;100236.25;;;6.14;74.34
50702;BME280;36670;50.094;8.496;2023-02-22T02:21:10;100236.19;;;6.21;74.58
50702;BME280;36670;50.094;8.496;2023-02-22T02:26:54;100233.63;;;6.45;73.02
50702;BME280;36670;50.094;8.496;2023-02-22T02:32:34;100233.81;;;6.25;73.86
50702;BME280;36670;50.094;8.496;2023-02-22T02:35:15;100229.91;;;6.39;73.85
50702;BME280;36670;50.094;8.496;2023-02-22T02:38:11;100229.03;;;6.39;73.73
50702;BME280;36670;50.094;8.496;2023-02-22T02:41:06;100219.84;;;6.70;72.44
50702;BME280;36670;50.094;8.496;2023-02-22T02:46:33;100231.31;;;7.16;71.25
50702;BME280;36670;50.094;8.496;2023-02-22T02:49:04;100223.66;;;6.88;71.43
50702;BME280;36670;50.094;8.496;2023-02-22T02:51:36;100217.94;;;6.52;72.51
50702;BME280;36670;50.094;8.496;2023-02-22T02:54:03;100220.28;;;6.30;72.84
50702;BME280;36670;50.094;8.496;2023-02-22T02:56:28;100217.72;;;6.35;72.91
50702;BME280;36670;50.094;8.496;2023-02-22T02:58:55;100216.78;;;6.41;72.46
50702;BME280;36670;50.094;8.496;2023-02-22T03:01:54;100211.16;;;6.55;72.27
50702;BME280;36670;50.094;8.496;2023-02-22T03:04:43;100211.91;;;6.25;72.93
50702;BME280;36670;50.094;8.496;2023-02-22T03:07:30;100210.59;;;6.09;73.78
50702;BME280;36670;50.094;8.496;2023-02-22T03:10:32;100206.63;;;6.05;74.18
50702;BME280;36670;50.094;8.496;2023-02-22T03:13:13;100213.09;;;6.10;74.08
50702;BME280;36670;50.094;8.496;2023-02-22T03:21:38;100194.25;;;6.39;74.55
50702;BME280;36670;50.094;8.496;2023-02-22T03:24:19;100194.25;;;6.39;73.96
50702;BME280;36670;50.094;8.496;2023-02-22T03:26:54;100185.66;;;6.54;73.42
50702;BME280;36670;50.094;8.496;2023-02-22T03:29:23;100192.56;;;6.38;73.94
50702;BME280;36670;50.094;8.496;2023-02-22T03:31:54;100192.09;;;6.23;74.40
50702;BME280;36670;50.094;8.496;2023-02-22T03:34:28;100186.56;;;6.29;74.15
50702;BME280;36670;50.094;8.496;2023-02-22T03:37:01;100195.94;;;6.40;73.92
50702;BME280;36670;50.094;8.496;2023-02-22T03:39:28;100176.72;;;6.59;73.54
50702;BME280;36670;50.094;8.496;2023-02-22T03:42:02;100187.47;;;6.42;73.98
50702;BME280;36670;50.094;8.496;2023-02-22T03:44:30;100181.44;;;6.70;73.38
50702;BME280;36670;50.094;8.496;2023-02-22T03:47:00;100180.09;;;7.10;72.43
50702;BME280;36670;50.094;8.496;2023-02-22T03:49:56;100183.38;;;7.30;71.65
50702;BME280;36670;50.094;8.496;2023-02-22T03:52:19;100190.03;;;6.92;72.17
50702;BME280;36670;50.094;8.496;2023-02-22T03:54:48;100179.78;;;6.99;71.58
50702;BME280;36670;50.094;8.496;2023-02-22T03:57:35;100178.38;;;6.78;72.09
50702;BME280;36670;50.094;8.496;2023-02-22T04:00:04;100178.09;;;6.68;72.10
50702;BME280;36670;50.094;8.496;2023-02-22T04:02:33;100178.97;;;6.80;71.50
50702;BME280;36670;50.094;8.496;2023-02-22T04:04:59;100179.53;;;6.71;71.97
50702;BME280;36670;50.094;8.496;2023-02-22T04:07:25;100181.06;;;6.85;71.41
50702;BME280;36670;50.094;8.496;2023-02-22T04:09:50;100178.03;;;6.56;71.55
50702;BME280;36670;50.094;8.496;2023-02-22T04:12:15;100177.28;;;6.49;71.84
50702;BME280;36670;50.094;8.496;2023-02-22T04:14:40;100182.19;;;6.22;73.05
50702;BME280;36670;50.094;8.496;2023-02-22T04:17:06;100175.88;;;6.21;73.68
50702;BME280;36670;50.094;8.496;2023-02-22T04:19:31;100171.84;;;6.24;73.70
50702;BME280;36670;50.094;8.496;2023-02-22T04:21:56;100163.94;;;6.34;73.01
50702;BME280;36670;50.094;8.496;2023-02-22T04:24:22;100170.69;;;6.31;73.44
50702;BME280;36670;50.094;8.496;2023-02-22T04:26:47;100163.34;;;6.32;73.27
50702;BME280;36670;50.094;8.496;2023-02-22T04:29:12;100161.63;;;6.49;72.67
50702;BME280;36670;50.094;8.496;2023-02-22T04:31:37;100166.50;;;6.66;72.01
50702;BME280;36670;50.094;8.496;2023-02-22T04:34:03;100171.09;;;6.72;71.92
50702;BME280;36670;50.094;8.496;2023-02-22T04:36:28;100161.53;;;6.75;71.80
50702;BME280;36670;50.094;8.496;2023-02-22T04:38:56;100161.16;;;6.53;72.14
50702;BME280;36670;50.094;8.496;2023-02-22T04:41:21;100164.97;;;6.70;71.70
50702;BME280;36670;50.094;8.496;2023-02-22T04:43:47;100164.38;;;6.49;72.21
50702;BME280;36670;50.094;8.496;2023-02-22T04:46:12;100160.13;;;6.35;72.57
50702;BME280;36670;50.094;8.496;2023-02-22T04:48:37;100162.53;;;6.25;73.27
50702;BME280;36670;50.094;8.496;2023-02-22T04:51:03;100161.88;;;6.48;71.98
50702;BME280;36670;50.094;8.496;2023-02-22T04:53:29;100165.44;;;6.67;71.81
50702;BME280;36670;50.094;8.496;2023-02-22T04:55:54;100161.75;;;6.92;70.70
50702;BME280;36670;50.094;8.496;2023-02-22T04:58:19;100165.41;;;6.86;71.30
50702;BME280;36670;50.094;8.496;2023-02-22T05:00:45;100153.44;;;6.31;72.22
50702;BME280;36670;50.094;8.496;2023-02-22T05:03:10;100148.78;;;6.50;71.39
50702;BME280;36670;50.094;8.496;2023-02-22T05:05:35;100144.56;;;6.66;71.30
50702;BME280;36670;50.094;8.496;2023-02-22T05:08:00;100146.53;;;6.77;70.96
50702;BME280;36670;50.094;8.496;2023-02-22T05:10:26;100151.47;;;6.87;70.71
50702;BME280;36670;50.094;8.496;2023-02-22T05:12:51;100151.41;;;6.75;71.06
50702;BME280;36670;50.094;8.496;2023-02-22T05:15:19;100152.47;;;6.74;71.10
50702;BME280;36670;50.094;8.496;2023-02-22T05:17:45;100147.72;;;6.81;70.54
50702;BME280;36670;50.094;8.496;2023-02-22T05:20:23;100154.41;;;6.55;71.08
50702;BME280;36670;50.094;8.496;2023-02-22T05:22:51;100150.88;;;6.66;71.22
50702;BME280;36670;50.094;8.496;2023-02-22T05:25:16;100146.88;;;6.51;71.03
50702;BME280;36670;50.094;8.496;2023-02-22T05:27:44;100144.44;;;6.42;71.40
50702;BME280;36670;50.094;8.496;2023-02-22T05:30:12;100151.09;;;6.09;71.82
50702;BME280;36670;50.094;8.496;2023-02-22T05:32:38;100143.28;;;6.13;72.69
50702;BME280;36670;50.094;8.496;2023-02-22T05:35:03;100143.06;;;6.14;71.84
50702;BME280;36670;50.094;8.496;2023-02-22T05:37:30;100138.78;;;6.37;71.26
50702;BME280;36670;50.094;8.496;2023-02-22T05:39:55;100137.44;;;6.28;71.55
50702;BME280;36670;50.094;8.496;2023-02-22T05:42:20;100139.38;;;6.21;71.44
50702;BME280;36670;50.094;8.496;2023-02-22T05:44:46;100129.13;;;6.16;71.66
50702;BME280;36670;50.094;8.496;2023-02-22T05:47:11;100139.38;;;6.02;72.25
50702;BME280;36670;50.094;8.496;2023-02-22T05:49:36;100141.00;;;6.10;71.72
50702;BME280;36670;50.094;8.496;2023-02-22T05:52:01;100136.06;;;5.93;73.02
50702;BME280;36670;50.094;8.496;2023-02-22T05:54:27;100130.59;;;5.93;72.66
50702;BME280;36670;50.094;8.496;2023-02-22T05:56:52;100140.47;;;6.38;71.50
50702;BME280;36670;50.094;8.496;2023-02-22T05:59:17;100132.41;;;6.43;71.03
50702;BME280;36670;50.094;8.496;2023-02-22T06:01:43;100132.00;;;6.58;70.53
50702;BME280;36670;50.094;8.496;2023-02-22T06:04:08;100141.00;;;6.65;70.29
50702;BME280;36670;50.094;8.496;2023-02-22T06:06:33;100134.81;;;6.70;70.78
50702;BME280;36670;50.094;8.496;2023-02-22T06:08:58;100143.34;;;6.62;70.39
50702;BME280;36670;50.094;8.496;2023-02-22T06:11:24;100141.78;;;6.54;70.11
50702;BME280;36670;50.094;8.496;2023-02-22T06:13:50;100139.09;;;6.29;70.90
50702;BME280;36670;50.094;8.496;2023-02-22T06:16:16;100143.38;;;6.43;70.87
50702;BME280;36670;50.094;8.496;2023-02-22T06:18:41;100137.50;;;6.58;69.98
50702;BME280;36670;50.094;8.496;2023-02-22T06:21:07;100135.59;;;6.59;70.19
50702;BME280;36670;50.094;8.496;2023-02-22T06:23:32;100138.41;;;6.52;70.20
50702;BME280;36670;50.094;8.496;2023-02-22T06:25:58;100134.28;;;6.61;69.26
50702;BME280;36670;50.094;8.496;2023-02-22T06:28:23;100136.50;;;6.34;70.59
50702;BME280;36670;50.094;8.496;2023-02-22T06:30:48;100140.00;;;6.60;69.79
50702;BME280;36670;50.094;8.496;2023-02-22T06:33:14;100143.06;;;6.52;69.81
50702;BME280;36670;50.094;8.496;2023-02-22T06:35:39;100141.53;;;6.56;70.00
50702;BME280;36670;50.094;8.496;2023-02-22T06:38:04;100138.72;;;6.44;70.14
50702;BME280;36670;50.094;8.496;2023-02-22T06:40:30;100147.38;;;6.59;69.93
50702;BME280;36670;50.094;8.496;2023-02-22T06:42:57;100148.59;;;6.63;69.76
50702;BME280;36670;50.094;8.496;2023-02-22T06:45:22;100148.22;;;6.78;69.94
50702;BME280;36670;50.094;8.496;2023-02-22T06:47:48;100155.94;;;6.70;69.94
50702;BME280;36670;50.094;8.496;2023-02-22T06:50:25;100150.50;;;6.63;70.79
50702;BME280;36670;50.094;8.496;2023-02-22T06:52:52;100151.28;;;6.52;70.92
50702;BME280;36670;50.094;8.496;2023-02-22T06:55:20;100156.03;;;6.44;70.67
50702;BME280;36670;50.094;8.496;2023-02-22T06:57:45;100145.19;;;6.31;71.56
50702;BME280;36670;50.094;8.496;2023-02-22T07:00:11;100155.31;;;6.49;70.77
50702;BME280;36670;50.094;8.496;2023-02-22T07:02:37;100156.94;;;6.20;71.51
50702;BME280;36670;50.094;8.496;2023-02-22T07:05:02;100163.16;;;6.27;70.85
50702;BME280;36670;50.094;8.496;2023-02-22T07:07:28;100169.25;;;6.29;71.46
50702;BME280;36670;50.094;8.496;2023-02-22T07:09:54;100173.38;;;6.38;71.00
50702;BME280;36670;50.094;8.496;2023-02-22T07:12:19;100178.34;;;6.29;72.13
50702;BME280;36670;50.094;8.496;2023-02-22T07:14:44;100179.31;;;6.72;71.70
50702;BME280;36670;50.094;8.496;2023-02-22T07:17:10;100172.84;;;6.97;70.59
50702;BME280;36670;50.094;8.496;2023-02-22T07:19:35;100181.09;;;6.97;70.30
50702;BME280;36670;50.094;8.496;2023-02-22T07:22:00;100180.69;;;7.12;70.22
50702;BME280;36670;50.094;8.496;2023-02-22T07:24:26;100191.34;;;7.20;70.01
50702;BME280;36670;50.094;8.496;2023-02-22T07:26:52;100189.16;;;7.10;70.81
50702;BME280;36670;50.094;8.496;2023-02-22T07:29:18;100188.22;;;7.16;70.43
50702;BME280;36670;50.094;8.496;2023-02-22T07:31:43;100188.84;;;7.00;71.27
50702;BME280;36670;50.094;8.496;2023-02-22T07:34:08;100198.41;;;7.28;70.73
50702;BME280;36670;50.094;8.496;2023-02-22T07:36:34;100195.88;;;7.57;69.96
50702;BME280;36670;50.094;8.496;2023-02-22T07:38:59;100191.84;;;7.71;69.42
50702;BME280;36670;50.094;8.496;2023-02-22T07:41:24;100201.13;;;7.58;69.83
50702;BME280;36670;50.094;8.496;2023-02-22T07:43:50;100197.09;;;7.84;68.47
50702;BME280;36670;50.094;8.496;2023-02-22T07:46:16;100202.22;;;7.69;69.73
50702;BME280;36670;50.094;8.496;2023-02-22T07:48:41;100205.13;;;7.74;69.49
50702;BME280;36670;50.094;8.496;2023-02-22T07:51:07;100208.50;;;8.12;69.22
50702;BME280;36670;50.094;8.496;2023-02-22T07:53:33;100194.28;;;8.27;67.49
50702;BME280;36670;50.094;8.496;2023-02-22T07:56:00;100203.19;;;7.63;69.71
50702;BME280;36670;50.094;8.496;2023-02-22T07:58:28;100194.88;;;8.17;68.46
50702;BME280;36670;50.094;8.496;2023-02-22T08:00:55;100201.44;;;8.16;68.60
50702;BME280;36670;50.094;8.496;2023-02-22T08:03:22;100204.72;;;7.59;69.39
50702;BME280;36670;50.094;8.496;2023-02-22T08:05:51;100202.88;;;8.18;68.95
50702;BME280;36670;50.094;8.496;2023-02-22T08:08:17;100202.75;;;7.90;69.38
50702;BME280;36670;50.094;8.496;2023-02-22T08:10:43;100198.44;;;7.94;69.81
50702;BME280;36670;50.094;8.496;2023-02-22T08:13:09;100193.66;;;8.48;67.64
50702;BME280;36670;50.094;8.496;2023-02-22T08:15:37;100193.41;;;8.50;68.23
50702;BME280;36670;50.094;8.496;2023-02-22T08:18:05;100189.47;;;8.58;68.12
50702;BME280;36670;50.094;8.496;2023-02-22T08:20:33;100185.28;;;8.96;67.31
50702;BME280;36670;50.094;8.496;2023-02-22T08:22:58;100185.53;;;8.94;67.03
50702;BME280;36670;50.094;8.496;2023-02-22T08:25:26;100178.97;;;8.83;66.89
50702;BME280;36670;50.094;8.496;2023-02-22T08:27:52;100188.16;;;8.60;66.97
50702;BME280;36670;50.094;8.496;2023-02-22T08:30:23;100182.63;;;8.72;66.72
50702;BME280;36670;50.094;8.496;2023-02-22T08:32:49;100173.53;;;8.71;66.83
50702;BME280;36670;50.094;8.496;2023-02-22T08:35:16;100179.41;;;8.63;67.24
50702;BME280;36670;50.094;8.496;2023-02-22T08:37:43;100189.59;;;8.51;67.68
50702;BME280;36670;50.094;8.496;2023-02-22T08:40:10;100183.13;;;8.10;68.17
50702;BME280;36670;50.094;8.496;2023-02-22T08:42:35;100186.97;;;8.20;67.98
50702;BME280;36670;50.094;8.496;2023-02-22T08:45:01;100189.69;;;7.61;69.67
50702;BME280;36670;50.094;8.496;2023-02-22T08:47:26;100187.84;;;7.43;70.32
50702;BME280;36670;50.094;8.496;2023-02-22T08:49:51;100196.56;;;7.52;70.82
50702;BME280;36670;50.094;8.496;2023-02-22T08:52:17;100197.09;;;7.84;70.75
50702;BME280;36670;50.094;8.496;2023-02-22T08:54:44;100201.63;;;7.79;71.15
50702;BME280;36670;50.094;8.496;2023-02-22T08:57:09;100194.56;;;7.59;71.79
50702;BME280;36670;50.094;8.496;2023-02-22T08:59:35;100195.81;;;7.33;72.76
50702;BME280;36670;50.094;8.496;2023-02-22T09:02:00;100196.50;;;7.71;72.28
50702;BME280;36670;50.094;8.496;2023-02-22T09:04:26;100195.69;;;7.94;70.89
50702;BME280;36670;50.094;8.496;2023-02-22T09:06:52;100188.16;;;8.25;70.48
50702;BME280;36670;50.094;8.496;2023-02-22T09:09:18;100191.84;;;8.30;70.21
50702;BME280;36670;50.094;8.496;2023-02-22T09:11:45;100182.19;;;8.16;71.05
50702;BME280;36670;50.094;8.496;2023-02-22T09:14:10;100189.09;;;7.83;71.83
50702;BME280;36670;50.094;8.496;2023-02-22T09:16:36;100185.41;;;7.89;72.47
50702;BME280;36670;50.094;8.496;2023-02-22T09:19:02;100170.44;;;8.44;71.05
50702;BME280;36670;50.094;8.496;2023-02-22T09:21:27;100169.13;;;8.11;71.76
50702;BME280;36670;50.094;8.496;2023-02-22T09:23:53;100166.72;;;8.62;71.00
50702;BME280;36670;50.094;8.496;2023-02-22T09:26:20;100168.97;;;8.77;70.86
50702;BME280;36670;50.094;8.496;2023-02-22T09:28:48;100175.19;;;9.13;70.59
50702;BME280;36670;50.094;8.496;2023-02-22T09:31:13;100166.81;;;9.08;71.55
50702;BME280;36670;50.094;8.496;2023-02-22T09:33:40;100168.34;;;9.62;69.06
50702;BME280;36670;50.094;8.496;2023-02-22T09:36:05;100162.31;;;9.48;69.85
50702;BME280;36670;50.094;8.496;2023-02-22T09:38:31;100159.31;;;9.66;69.83
50702;BME280;36670;50.094;8.496;2023-02-22T09:41:21;100148.06;;;10.07;69.48
50702;BME280;36670;50.094;8.496;2023-02-22T09:44:17;100153.03;;;10.05;69.01
50702;BME280;36670;50.094;8.496;2023-02-22T09:46:44;100158.69;;;10.15;68.30
50702;BME280;36670;50.094;8.496;2023-02-22T09:49:20;100150.00;;;10.06;67.79
50702;BME280;36670;50.094;8.496;2023-02-22T09:52:04;100154.88;;;9.99;67.96
50702;BME280;36670;50.094;8.496;2023-02-22T09:54:38;100154.69;;;10.06;69.03
50702;BME280;36670;50.094;8.496;2023-02-22T09:57:08;100152.78;;;10.06;68.42
50702;BME280;36670;50.094;8.496;2023-02-22T09:59:47;100151.00;;;10.00;69.31
50702;BME280;36670;50.094;8.496;2023-02-22T10:02:26;100152.88;;;10.34;68.39
50702;BME280;36670;50.094;8.496;2023-02-22T10:05:07;100157.16;;;10.41;68.27
50702;BME280;36670;50.094;8.496;2023-02-22T10:07:45;100147.19;;;10.40;68.38
50702;BME280;36670;50.094;8.496;2023-02-22T10:10:20;100147.91;;;10.75;68.09
50702;BME280;36670;50.094;8.496;2023-02-22T10:15:58;100156.56;;;10.84;66.85
50702;BME280;36670;50.094;8.496;2023-02-22T10:21:28;100158.44;;;10.78;67.11
50702;BME280;36670;50.094;8.496;2023-02-22T10:24:24;100149.31;;;11.00;66.56
50702;BME280;36670;50.094;8.496;2023-02-22T10:26:57;100144.94;;;11.04;66.75
50702;BME280;36670;50.094;8.496;2023-02-22T10:29:39;100145.84;;;11.15;65.48
50702;BME280;36670;50.094;8.496;2023-02-22T10:32:13;100146.69;;;11.42;65.33
50702;BME280;36670;50.094;8.496;2023-02-22T10:34:49;100151.44;;;11.20;64.87
50702;BME280;36670;50.094;8.496;2023-02-22T10:37:24;100144.88;;;10.99;65.50
50702;BME280;36670;50.094;8.496;2023-02-22T10:39:56;100154.69;;;11.12;66.22
50702;BME280;36670;50.094;8.496;2023-02-22T10:42:25;100146.19;;;11.18;66.47
50702;BME280;36670;50.094;8.496;2023-02-22T10:44:51;100141.00;;;11.27;65.88
50702;BME280;36670;50.094;8.496;2023-02-22T10:47:17;100140.53;;;11.63;65.05
50702;BME280;36670;50.094;8.496;2023-02-22T10:49:47;100145.47;;;11.93;64.81
50702;BME280;36670;50.094;8.496;2023-02-22T10:52:26;100133.03;;;12.33;64.08
50702;BME280;36670;50.094;8.496;2023-02-22T10:54:55;100134.69;;;12.39;63.33
50702;BME280;36670;50.094;8.496;2023-02-22T10:57:41;100127.84;;;12.47;63.35
50702;BME280;36670;50.094;8.496;2023-02-22T11:00:21;100126.97;;;12.46;64.20
50702;BME280;36670;50.094;8.496;2023-02-22T11:03:01;100121.47;;;12.52;63.28
50702;BME280;36670;50.094;8.496;2023-02-22T11:10:48;100123.38;;;12.46;63.42
50702;BME280;36670;50.094;8.496;2023-02-22T11:15:59;100110.81;;;12.86;62.74
50702;BME280;36670;50.094;8.496;2023-02-22T11:18:31;100101.34;;;12.13;62.90
50702;BME280;36670;50.094;8.496;2023-02-22T11:21:07;100105.06;;;12.40;62.47
50702;BME280;36670;50.094;8.496;2023-02-22T11:23:38;100098.47;;;12.46;61.92
50702;BME280;36670;50.094;8.496;2023-02-22T11:26:09;100092.13;;;11.98;63.83
50702;BME280;36670;50.094;8.496;2023-02-22T11:28:42;100083.78;;;12.40;62.70
50702;BME280;36670;50.094;8.496;2023-02-22T11:36:38;100070.09;;;12.18;62.57
50702;BME280;36670;50.094;8.496;2023-02-22T11:39:29;100073.03;;;12.59;63.12
50702;BME280;36670;50.094;8.496;2023-02-22T11:42:17;100069.28;;;13.02;61.56
50702;BME280;36670;50.094;8.496;2023-02-22T11:44:44;100062.94;;;13.32;61.48
50702;BME280;36670;50.094;8.496;2023-02-22T11:47:11;100062.09;;;13.47;60.74
50702;BME280;36670;50.094;8.496;2023-02-22T11:49:38;100059.03;;;13.28;61.93
50702;BME280;36670;50.094;8.496;2023-02-22T11:57:14;100057.91;;;13.80;60.79
50702;BME280;36670;50.094;8.496;2023-02-22T12:02:37;100050.41;;;13.96;61.07
50702;BME280;36670;50.094;8.496;2023-02-22T12:05:38;100049.31;;;13.82;60.47
50702;BME280;36670;50.094;8.496;2023-02-22T12:10:53;100047.13;;;13.69;59.23
50702;BME280;36670;50.094;8.496;2023-02-22T12:19:26;100037.41;;;13.71;59.30
50702;BME280;36670;50.094;8.496;2023-02-22T12:21:58;100039.31;;;13.86;58.74
50702;BME280;36670;50.094;8.496;2023-02-22T12:24:32;100032.53;;;14.28;58.56
50702;BME280;36670;50.094;8.496;2023-02-22T12:27:11;100032.03;;;14.11;58.20
50702;BME280;36670;50.094;8.496;2023-02-22T12:29:45;100023.09;;;14.29;58.69
50702;BME280;36670;50.094;8.496;2023-02-22T12:32:31;100029.47;;;14.30;58.18
50702;BME280;36670;50.094;8.496;2023-02-22T12:35:08;100018.06;;;14.26;57.83
50702;BME280;36670;50.094;8.496;2023-02-22T12:37:53;100029.59;;;13.94;57.58
50702;BME280;36670;50.094;8.496;2023-02-22T12:40:23;100032.66;;;13.92;58.09
50702;BME280;36670;50.094;8.496;2023-02-22T12:43:14;100029.06;;;13.81;58.33
50702;BME280;36670;50.094;8.496;2023-02-22T12:45:47;100020.16;;;13.90;58.38
50702;BME280;36670;50.094;8.496;2023-02-22T12:50:58;100022.94;;;14.55;56.11
50702;BME280;36670;50.094;8.496;2023-02-22T12:53:30;100017.69;;;14.54;57.27
50702;BME280;36670;50.094;8.496;2023-02-22T12:56:22;100009.88;;;14.66;56.40
50702;BME280;36670;50.094;8.496;2023-02-22T12:58:58;100009.59;;;14.62;56.00
50702;BME280;36670;50.094;8.496;2023-02-22T13:01:33;100010.38;;;14.73;56.55
50702;BME280;36670;50.094;8.496;2023-02-22T13:04:01;100012.84;;;14.75;56.13
50702;BME280;36670;50.094;8.496;2023-02-22T13:06:41;100011.19;;;14.74;55.58
50702;BME280;36670;50.094;8.496;2023-02-22T13:12:14;100015.13;;;14.67;55.05
50702;BME280;36670;50.094;8.496;2023-02-22T13:15:28;100007.50;;;14.83;56.24
50702;BME280;36670;50.094;8.496;2023-02-22T13:20:46;99999.16;;;14.83;55.00
50702;BME280;36670;50.094;8.496;2023-02-22T13:23:24;99997.06;;;14.60;56.25
50702;BME280;36670;50.094;8.496;2023-02-22T13:26:00;99995.38;;;14.74;55.41
50702;BME280;36670;50.094;8.496;2023-02-22T13:28:51;99986.81;;;15.00;54.33
50702;BME280;36670;50.094;8.496;2023-02-22T13:31:36;99990.78;;;14.94;54.64
50702;BME280;36670;50.094;8.496;2023-02-22T13:37:06;99970.81;;;14.87;54.66
50702;BME280;36670;50.094;8.496;2023-02-22T13:40:18;99979.84;;;15.37;54.54
50702;BME280;36670;50.094;8.496;2023-02-22T13:46:03;99962.81;;;15.44;53.97
50702;BME280;36670;50.094;8.496;2023-02-22T13:48:41;99979.38;;;15.30;53.94
50702;BME280;36670;50.094;8.496;2023-02-22T13:51:37;99970.94;;;15.35;53.92
50702;BME280;36670;50.094;8.496;2023-02-22T13:54:20;99969.47;;;15.48;54.49
50702;BME280;36670;50.094;8.496;2023-02-22T13:56:49;99957.63;;;15.61;53.88
50702;BME280;36670;50.094;8.496;2023-02-22T13:59:31;99965.13;;;15.36;54.38
50702;BME280;36670;50.094;8.496;2023-02-22T14:01:59;99961.88;;;15.53;53.38
50702;BME280;36670;50.094;8.496;2023-02-22T14:04:34;99962.81;;;15.44;53.22
50702;BME280;36670;50.094;8.496;2023-02-22T14:09:54;99955.09;;;15.35;53.41
50702;BME280;36670;50.094;8.496;2023-02-22T14:17:47;99953.44;;;15.34;53.07
50702;BME280;36670;50.094;8.496;2023-02-22T14:22:44;99948.91;;;15.44;53.06
50702;BME280;36670;50.094;8.496;2023-02-22T14:28:02;99952.69;;;15.53;53.33
50702;BME280;36670;50.094;8.496;2023-02-22T14:30:30;99955.78;;;15.51;53.07
50702;BME280;36670;50.094;8.496;2023-02-22T14:32:57;99949.78;;;15.39;53.18
50702;BME280;36670;50.094;8.496;2023-02-22T14:35:25;99952.75;;;15.48;53.18